sensor_id;sensor_type;location;lat;lon;timestamp;P1;durP1;ratioP1;P2;durP2;ratioP2
13238;SDS011;6686;51.292;4.166;2022-07-23T00:01:39;6.97;;;4.33;;
13238;SDS011;6686;51.292;4.166;2022-07-23T00:04:25;5.63;;;4.90;;
13238;SDS011;6686;51.292;4.166;2022-07-23T00:07:11;6.00;;;4.20;;
13238;SDS011;6686;51.292;4.166;2022-07-23T00:09:56;7.93;;;4.63;;
13238;SDS011;6686;51.292;4.166;2022-07-23T00:12:43;5.37;;;4.87;;
13238;SDS011;6686;51.292;4.166;2022-07-23T00:15:28;5.43;;;4.57;;
13238;SDS011;6686;51.292;4.166;2022-07-23T00:18:14;6.63;;;4.60;;
13238;SDS011;6686;51.292;4.166;2022-07-23T00:21:00;6.70;;;4.23;;
13238;SDS011;6686;51.292;4.166;2022-07-23T00:23:46;8.97;;;5.03;;
13238;SDS011;6686;51.292;4.166;2022-07-23T00:26:32;5.45;;;4.70;;
13238;SDS011;6686;51.292;4.166;2022-07-23T00:29:18;6.87;;;4.83;;
13238;SDS011;6686;51.292;4.166;2022-07-23T00:32:03;5.17;;;4.40;;
13238;SDS011;6686;51.292;4.166;2022-07-23T00:34:50;7.05;;;5.30;;
13238;SDS011;6686;51.292;4.166;2022-07-23T00:37:35;6.40;;;5.20;;
13238;SDS011;6686;51.292;4.166;2022-07-23T00:40:21;7.93;;;4.87;;
13238;SDS011;6686;51.292;4.166;2022-07-23T00:43:07;5.97;;;4.53;;
13238;SDS011;6686;51.292;4.166;2022-07-23T00:45:54;7.43;;;6.20;;
13238;SDS011;6686;51.292;4.166;2022-07-23T00:48:39;7.33;;;5.07;;
13238;SDS011;6686;51.292;4.166;2022-07-23T00:51:25;8.30;;;6.37;;
13238;SDS011;6686;51.292;4.166;2022-07-23T00:54:11;13.90;;;11.47;;
13238;SDS011;6686;51.292;4.166;2022-07-23T00:56:57;19.53;;;8.73;;
13238;SDS011;6686;51.292;4.166;2022-07-23T00:59:43;12.50;;;8.93;;
13238;SDS011;6686;51.292;4.166;2022-07-23T01:02:28;20.70;;;13.50;;
13238;SDS011;6686;51.292;4.166;2022-07-23T01:05:14;10.37;;;8.60;;
13238;SDS011;6686;51.292;4.166;2022-07-23T01:08:00;9.10;;;6.00;;
13238;SDS011;6686;51.292;4.166;2022-07-23T01:10:46;5.93;;;5.10;;
13238;SDS011;6686;51.292;4.166;2022-07-23T01:13:32;8.63;;;5.33;;
13238;SDS011;6686;51.292;4.166;2022-07-23T01:16:20;7.80;;;6.17;;
13238;SDS011;6686;51.292;4.166;2022-07-23T01:19:06;7.63;;;6.83;;
13238;SDS011;6686;51.292;4.166;2022-07-23T01:21:52;14.97;;;5.93;;
13238;SDS011;6686;51.292;4.166;2022-07-23T01:24:38;5.90;;;5.30;;
13238;SDS011;6686;51.292;4.166;2022-07-23T01:27:23;9.03;;;5.83;;
13238;SDS011;6686;51.292;4.166;2022-07-23T01:30:10;7.17;;;5.07;;
13238;SDS011;6686;51.292;4.166;2022-07-23T01:32:55;7.13;;;6.13;;
13238;SDS011;6686;51.292;4.166;2022-07-23T01:35:41;7.77;;;6.77;;
13238;SDS011;6686;51.292;4.166;2022-07-23T01:38:27;9.63;;;6.20;;
13238;SDS011;6686;51.292;4.166;2022-07-23T01:41:13;9.43;;;6.93;;
13238;SDS011;6686;51.292;4.166;2022-07-23T01:44:08;12.30;;;7.23;;
13238;SDS011;6686;51.292;4.166;2022-07-23T01:46:55;6.97;;;6.03;;
13238;SDS011;6686;51.292;4.166;2022-07-23T01:49:40;8.67;;;6.53;;
13238;SDS011;6686;51.292;4.166;2022-07-23T01:52:26;10.10;;;6.10;;
13238;SDS011;6686;51.292;4.166;2022-07-23T01:55:11;6.90;;;5.60;;
13238;SDS011;6686;51.292;4.166;2022-07-23T01:57:57;7.80;;;5.80;;
13238;SDS011;6686;51.292;4.166;2022-07-23T02:00:43;6.53;;;5.93;;
13238;SDS011;6686;51.292;4.166;2022-07-23T02:03:29;8.90;;;5.90;;
13238;SDS011;6686;51.292;4.166;2022-07-23T02:06:14;11.83;;;6.47;;
13238;SDS011;6686;51.292;4.166;2022-07-23T02:09:01;12.87;;;6.40;;
13238;SDS011;6686;51.292;4.166;2022-07-23T02:11:47;8.90;;;5.77;;
13238;SDS011;6686;51.292;4.166;2022-07-23T02:14:37;10.00;;;5.97;;
13238;SDS011;6686;51.292;4.166;2022-07-23T02:17:19;8.80;;;6.00;;
13238;SDS011;6686;51.292;4.166;2022-07-23T02:20:08;10.38;;;7.03;;
13238;SDS011;6686;51.292;4.166;2022-07-23T02:22:56;6.17;;;5.57;;
13238;SDS011;6686;51.292;4.166;2022-07-23T02:25:43;6.33;;;4.93;;
13238;SDS011;6686;51.292;4.166;2022-07-23T02:28:29;8.90;;;5.53;;
13238;SDS011;6686;51.292;4.166;2022-07-23T02:31:15;6.67;;;5.47;;
13238;SDS011;6686;51.292;4.166;2022-07-23T02:34:03;5.50;;;4.93;;
13238;SDS011;6686;51.292;4.166;2022-07-23T02:36:46;8.37;;;4.93;;
13238;SDS011;6686;51.292;4.166;2022-07-23T02:39:32;6.80;;;5.70;;
13238;SDS011;6686;51.292;4.166;2022-07-23T02:42:18;7.47;;;5.70;;
13238;SDS011;6686;51.292;4.166;2022-07-23T02:45:04;7.20;;;5.37;;
13238;SDS011;6686;51.292;4.166;2022-07-23T02:47:50;9.30;;;5.67;;
13238;SDS011;6686;51.292;4.166;2022-07-23T02:50:36;6.57;;;5.60;;
13238;SDS011;6686;51.292;4.166;2022-07-23T02:53:22;8.47;;;5.87;;
13238;SDS011;6686;51.292;4.166;2022-07-23T02:56:07;9.00;;;6.10;;
13238;SDS011;6686;51.292;4.166;2022-07-23T02:58:53;11.87;;;6.13;;
13238;SDS011;6686;51.292;4.166;2022-07-23T03:01:39;6.47;;;5.83;;
13238;SDS011;6686;51.292;4.166;2022-07-23T03:04:26;9.30;;;6.53;;
13238;SDS011;6686;51.292;4.166;2022-07-23T03:07:11;6.30;;;5.70;;
13238;SDS011;6686;51.292;4.166;2022-07-23T03:09:58;11.23;;;5.83;;
13238;SDS011;6686;51.292;4.166;2022-07-23T03:12:44;7.40;;;5.87;;
13238;SDS011;6686;51.292;4.166;2022-07-23T03:15:29;8.20;;;5.40;;
13238;SDS011;6686;51.292;4.166;2022-07-23T03:18:15;8.00;;;5.57;;
13238;SDS011;6686;51.292;4.166;2022-07-23T03:21:01;6.33;;;5.67;;
13238;SDS011;6686;51.292;4.166;2022-07-23T03:23:47;6.23;;;5.60;;
13238;SDS011;6686;51.292;4.166;2022-07-23T03:26:33;6.07;;;5.17;;
13238;SDS011;6686;51.292;4.166;2022-07-23T03:29:19;7.37;;;5.70;;
13238;SDS011;6686;51.292;4.166;2022-07-23T03:32:05;7.70;;;6.22;;
13238;SDS011;6686;51.292;4.166;2022-07-23T03:34:51;6.20;;;5.47;;
13238;SDS011;6686;51.292;4.166;2022-07-23T03:37:37;6.97;;;6.00;;
13238;SDS011;6686;51.292;4.166;2022-07-23T03:40:23;6.73;;;5.40;;
13238;SDS011;6686;51.292;4.166;2022-07-23T03:43:09;6.97;;;5.73;;
13238;SDS011;6686;51.292;4.166;2022-07-23T03:45:55;7.33;;;5.43;;
13238;SDS011;6686;51.292;4.166;2022-07-23T03:48:41;7.40;;;5.70;;
13238;SDS011;6686;51.292;4.166;2022-07-23T03:51:27;9.27;;;5.57;;
13238;SDS011;6686;51.292;4.166;2022-07-23T03:54:13;7.17;;;5.80;;
13238;SDS011;6686;51.292;4.166;2022-07-23T03:56:59;6.23;;;5.63;;
13238;SDS011;6686;51.292;4.166;2022-07-23T03:59:45;7.07;;;5.90;;
13238;SDS011;6686;51.292;4.166;2022-07-23T04:02:31;6.67;;;5.60;;
13238;SDS011;6686;51.292;4.166;2022-07-23T04:05:16;9.63;;;5.80;;
13238;SDS011;6686;51.292;4.166;2022-07-23T04:08:02;8.03;;;5.73;;
13238;SDS011;6686;51.292;4.166;2022-07-23T04:10:48;6.70;;;5.83;;
13238;SDS011;6686;51.292;4.166;2022-07-23T04:13:34;7.93;;;7.12;;
13238;SDS011;6686;51.292;4.166;2022-07-23T04:16:20;8.00;;;6.60;;
13238;SDS011;6686;51.292;4.166;2022-07-23T04:19:06;6.93;;;6.10;;
13238;SDS011;6686;51.292;4.166;2022-07-23T04:21:52;8.97;;;5.87;;
13238;SDS011;6686;51.292;4.166;2022-07-23T04:24:38;6.50;;;5.90;;
13238;SDS011;6686;51.292;4.166;2022-07-23T04:27:24;7.60;;;5.77;;
13238;SDS011;6686;51.292;4.166;2022-07-23T04:30:10;7.57;;;6.47;;
13238;SDS011;6686;51.292;4.166;2022-07-23T04:32:56;6.47;;;5.80;;
13238;SDS011;6686;51.292;4.166;2022-07-23T04:35:42;6.07;;;5.47;;
13238;SDS011;6686;51.292;4.166;2022-07-23T04:38:28;7.10;;;5.93;;
13238;SDS011;6686;51.292;4.166;2022-07-23T04:41:14;6.40;;;5.43;;
13238;SDS011;6686;51.292;4.166;2022-07-23T04:44:00;7.50;;;6.33;;
13238;SDS011;6686;51.292;4.166;2022-07-23T04:46:46;8.23;;;6.53;;
13238;SDS011;6686;51.292;4.166;2022-07-23T04:49:32;6.53;;;5.83;;
13238;SDS011;6686;51.292;4.166;2022-07-23T04:52:18;7.33;;;5.83;;
13238;SDS011;6686;51.292;4.166;2022-07-23T04:55:04;7.87;;;6.13;;
13238;SDS011;6686;51.292;4.166;2022-07-23T04:57:50;10.17;;;6.27;;
13238;SDS011;6686;51.292;4.166;2022-07-23T05:00:36;8.93;;;6.00;;
13238;SDS011;6686;51.292;4.166;2022-07-23T05:03:22;10.90;;;6.63;;
13238;SDS011;6686;51.292;4.166;2022-07-23T05:06:08;9.83;;;5.97;;
13238;SDS011;6686;51.292;4.166;2022-07-23T05:08:54;6.93;;;6.23;;
13238;SDS011;6686;51.292;4.166;2022-07-23T05:11:40;7.67;;;6.13;;
13238;SDS011;6686;51.292;4.166;2022-07-23T05:14:26;6.90;;;6.20;;
13238;SDS011;6686;51.292;4.166;2022-07-23T05:17:12;6.97;;;6.27;;
13238;SDS011;6686;51.292;4.166;2022-07-23T05:19:58;8.17;;;6.43;;
13238;SDS011;6686;51.292;4.166;2022-07-23T05:22:43;6.43;;;5.73;;
13238;SDS011;6686;51.292;4.166;2022-07-23T05:25:29;9.03;;;6.27;;
13238;SDS011;6686;51.292;4.166;2022-07-23T05:28:15;6.27;;;5.67;;
13238;SDS011;6686;51.292;4.166;2022-07-23T05:31:01;7.33;;;6.10;;
13238;SDS011;6686;51.292;4.166;2022-07-23T05:33:47;8.77;;;6.00;;
13238;SDS011;6686;51.292;4.166;2022-07-23T05:36:33;10.20;;;6.03;;
13238;SDS011;6686;51.292;4.166;2022-07-23T05:39:19;8.47;;;5.70;;
13238;SDS011;6686;51.292;4.166;2022-07-23T05:42:05;8.50;;;7.35;;
13238;SDS011;6686;51.292;4.166;2022-07-23T05:44:51;7.33;;;6.60;;
13238;SDS011;6686;51.292;4.166;2022-07-23T05:47:42;7.03;;;6.27;;
13238;SDS011;6686;51.292;4.166;2022-07-23T05:50:31;6.47;;;5.83;;
13238;SDS011;6686;51.292;4.166;2022-07-23T05:53:17;8.27;;;7.22;;
13238;SDS011;6686;51.292;4.166;2022-07-23T05:56:03;8.77;;;6.07;;
13238;SDS011;6686;51.292;4.166;2022-07-23T05:58:49;10.07;;;5.80;;
13238;SDS011;6686;51.292;4.166;2022-07-23T06:01:35;6.70;;;4.97;;
13238;SDS011;6686;51.292;4.166;2022-07-23T06:04:21;5.47;;;4.73;;
13238;SDS011;6686;51.292;4.166;2022-07-23T06:07:07;5.20;;;4.70;;
13238;SDS011;6686;51.292;4.166;2022-07-23T06:09:53;6.47;;;5.30;;
13238;SDS011;6686;51.292;4.166;2022-07-23T06:12:40;5.87;;;4.83;;
13238;SDS011;6686;51.292;4.166;2022-07-23T06:15:25;6.93;;;5.10;;
13238;SDS011;6686;51.292;4.166;2022-07-23T06:18:11;6.03;;;5.00;;
13238;SDS011;6686;51.292;4.166;2022-07-23T06:20:57;6.53;;;5.10;;
13238;SDS011;6686;51.292;4.166;2022-07-23T06:23:43;13.60;;;5.47;;
13238;SDS011;6686;51.292;4.166;2022-07-23T06:26:28;5.30;;;4.40;;
13238;SDS011;6686;51.292;4.166;2022-07-23T06:29:14;5.57;;;4.67;;
13238;SDS011;6686;51.292;4.166;2022-07-23T06:32:00;4.12;;;3.70;;
13238;SDS011;6686;51.292;4.166;2022-07-23T06:34:46;5.37;;;3.75;;
13238;SDS011;6686;51.292;4.166;2022-07-23T06:37:32;4.15;;;3.60;;
13238;SDS011;6686;51.292;4.166;2022-07-23T06:40:18;4.57;;;4.07;;
13238;SDS011;6686;51.292;4.166;2022-07-23T06:43:04;5.18;;;4.22;;
13238;SDS011;6686;51.292;4.166;2022-07-23T06:45:50;5.45;;;4.15;;
13238;SDS011;6686;51.292;4.166;2022-07-23T06:48:35;8.18;;;4.22;;
13238;SDS011;6686;51.292;4.166;2022-07-23T06:51:22;5.78;;;4.20;;
13238;SDS011;6686;51.292;4.166;2022-07-23T06:54:08;7.18;;;4.22;;
13238;SDS011;6686;51.292;4.166;2022-07-23T06:56:53;4.12;;;3.83;;
13238;SDS011;6686;51.292;4.166;2022-07-23T06:59:39;5.03;;;4.53;;
13238;SDS011;6686;51.292;4.166;2022-07-23T07:02:25;4.82;;;4.15;;
13238;SDS011;6686;51.292;4.166;2022-07-23T07:05:11;4.70;;;4.25;;
13238;SDS011;6686;51.292;4.166;2022-07-23T07:07:57;4.95;;;4.37;;
13238;SDS011;6686;51.292;4.166;2022-07-23T07:10:42;7.75;;;5.12;;
13238;SDS011;6686;51.292;4.166;2022-07-23T07:13:28;6.60;;;4.85;;
13238;SDS011;6686;51.292;4.166;2022-07-23T07:16:14;5.68;;;5.10;;
13238;SDS011;6686;51.292;4.166;2022-07-23T07:19:00;5.10;;;4.68;;
13238;SDS011;6686;51.292;4.166;2022-07-23T07:21:45;5.68;;;4.82;;
13238;SDS011;6686;51.292;4.166;2022-07-23T07:24:31;6.43;;;5.55;;
13238;SDS011;6686;51.292;4.166;2022-07-23T07:27:17;5.70;;;4.65;;
13238;SDS011;6686;51.292;4.166;2022-07-23T07:30:04;7.28;;;5.78;;
13238;SDS011;6686;51.292;4.166;2022-07-23T07:32:49;5.50;;;5.00;;
13238;SDS011;6686;51.292;4.166;2022-07-23T07:35:36;7.30;;;5.70;;
13238;SDS011;6686;51.292;4.166;2022-07-23T07:38:21;7.62;;;6.05;;
13238;SDS011;6686;51.292;4.166;2022-07-23T07:41:07;8.93;;;6.03;;
13238;SDS011;6686;51.292;4.166;2022-07-23T07:43:53;7.05;;;5.45;;
13238;SDS011;6686;51.292;4.166;2022-07-23T07:46:39;6.57;;;5.53;;
13238;SDS011;6686;51.292;4.166;2022-07-23T07:49:25;6.60;;;5.97;;
13238;SDS011;6686;51.292;4.166;2022-07-23T07:52:11;9.20;;;5.47;;
13238;SDS011;6686;51.292;4.166;2022-07-23T07:54:57;6.65;;;5.70;;
13238;SDS011;6686;51.292;4.166;2022-07-23T07:57:43;7.45;;;5.82;;
13238;SDS011;6686;51.292;4.166;2022-07-23T08:00:28;8.50;;;6.47;;
13238;SDS011;6686;51.292;4.166;2022-07-23T08:03:14;7.57;;;5.97;;
13238;SDS011;6686;51.292;4.166;2022-07-23T08:06:00;6.37;;;5.53;;
13238;SDS011;6686;51.292;4.166;2022-07-23T08:08:46;7.40;;;6.45;;
13238;SDS011;6686;51.292;4.166;2022-07-23T08:11:31;7.22;;;6.18;;
13238;SDS011;6686;51.292;4.166;2022-07-23T08:14:18;8.40;;;6.30;;
13238;SDS011;6686;51.292;4.166;2022-07-23T08:17:03;8.43;;;6.57;;
13238;SDS011;6686;51.292;4.166;2022-07-23T08:19:49;7.65;;;6.20;;
13238;SDS011;6686;51.292;4.166;2022-07-23T08:25:36;8.60;;;5.85;;
13238;SDS011;6686;51.292;4.166;2022-07-23T08:28:21;7.70;;;6.82;;
13238;SDS011;6686;51.292;4.166;2022-07-23T08:31:07;8.00;;;6.00;;
13238;SDS011;6686;51.292;4.166;2022-07-23T08:33:52;6.22;;;5.62;;
13238;SDS011;6686;51.292;4.166;2022-07-23T08:36:38;8.02;;;5.57;;
13238;SDS011;6686;51.292;4.166;2022-07-23T08:39:24;7.10;;;6.30;;
13238;SDS011;6686;51.292;4.166;2022-07-23T08:42:10;6.18;;;5.57;;
13238;SDS011;6686;51.292;4.166;2022-07-23T08:44:56;7.68;;;6.10;;
13238;SDS011;6686;51.292;4.166;2022-07-23T08:47:42;8.95;;;6.68;;
13238;SDS011;6686;51.292;4.166;2022-07-23T08:50:28;9.75;;;7.03;;
13238;SDS011;6686;51.292;4.166;2022-07-23T08:53:14;7.25;;;5.72;;
13238;SDS011;6686;51.292;4.166;2022-07-23T08:56:00;6.72;;;6.03;;
13238;SDS011;6686;51.292;4.166;2022-07-23T08:58:48;6.62;;;5.47;;
13238;SDS011;6686;51.292;4.166;2022-07-23T09:01:34;8.70;;;5.50;;
13238;SDS011;6686;51.292;4.166;2022-07-23T09:04:20;9.43;;;5.75;;
13238;SDS011;6686;51.292;4.166;2022-07-23T09:07:06;5.70;;;5.10;;
13238;SDS011;6686;51.292;4.166;2022-07-23T09:10:26;9.90;;;5.75;;
13238;SDS011;6686;51.292;4.166;2022-07-23T09:12:44;7.65;;;6.95;;
13238;SDS011;6686;51.292;4.166;2022-07-23T09:15:31;7.22;;;6.25;;
13238;SDS011;6686;51.292;4.166;2022-07-23T09:18:17;7.07;;;6.37;;
13238;SDS011;6686;51.292;4.166;2022-07-23T09:21:13;10.05;;;6.50;;
13238;SDS011;6686;51.292;4.166;2022-07-23T09:24:01;6.40;;;5.80;;
13238;SDS011;6686;51.292;4.166;2022-07-23T09:26:52;7.70;;;6.85;;
13238;SDS011;6686;51.292;4.166;2022-07-23T09:29:38;8.07;;;6.20;;
13238;SDS011;6686;51.292;4.166;2022-07-23T09:32:24;7.12;;;6.43;;
13238;SDS011;6686;51.292;4.166;2022-07-23T09:35:10;8.50;;;6.00;;
13238;SDS011;6686;51.292;4.166;2022-07-23T09:38:05;7.85;;;6.20;;
13238;SDS011;6686;51.292;4.166;2022-07-23T09:41:04;7.62;;;5.93;;
13238;SDS011;6686;51.292;4.166;2022-07-23T09:43:33;7.97;;;6.70;;
13238;SDS011;6686;51.292;4.166;2022-07-23T09:46:26;6.82;;;6.12;;
13238;SDS011;6686;51.292;4.166;2022-07-23T09:52:02;8.27;;;6.57;;
13238;SDS011;6686;51.292;4.166;2022-07-23T09:54:48;8.43;;;6.97;;
13238;SDS011;6686;51.292;4.166;2022-07-23T09:57:34;7.35;;;6.03;;
13238;SDS011;6686;51.292;4.166;2022-07-23T10:00:19;8.95;;;6.93;;
13238;SDS011;6686;51.292;4.166;2022-07-23T10:03:05;7.97;;;6.62;;
13238;SDS011;6686;51.292;4.166;2022-07-23T10:05:51;7.68;;;6.43;;
13238;SDS011;6686;51.292;4.166;2022-07-23T10:08:38;7.82;;;6.07;;
13238;SDS011;6686;51.292;4.166;2022-07-23T10:11:23;7.95;;;7.18;;
13238;SDS011;6686;51.292;4.166;2022-07-23T10:14:09;9.43;;;8.02;;
13238;SDS011;6686;51.292;4.166;2022-07-23T10:16:54;8.40;;;7.18;;
13238;SDS011;6686;51.292;4.166;2022-07-23T10:19:41;9.65;;;8.65;;
13238;SDS011;6686;51.292;4.166;2022-07-23T10:22:28;11.02;;;8.27;;
13238;SDS011;6686;51.292;4.166;2022-07-23T10:28:30;9.97;;;8.90;;
13238;SDS011;6686;51.292;4.166;2022-07-23T10:34:39;8.85;;;7.90;;
13238;SDS011;6686;51.292;4.166;2022-07-23T10:37:25;7.97;;;7.18;;
13238;SDS011;6686;51.292;4.166;2022-07-23T10:42:58;10.15;;;8.40;;
13238;SDS011;6686;51.292;4.166;2022-07-23T10:45:40;9.63;;;8.50;;
13238;SDS011;6686;51.292;4.166;2022-07-23T10:48:26;7.20;;;6.50;;
13238;SDS011;6686;51.292;4.166;2022-07-23T10:51:12;9.48;;;8.52;;
13238;SDS011;6686;51.292;4.166;2022-07-23T10:53:58;9.60;;;8.70;;
13238;SDS011;6686;51.292;4.166;2022-07-23T10:56:51;8.90;;;7.85;;
13238;SDS011;6686;51.292;4.166;2022-07-23T11:03:00;9.23;;;7.43;;
13238;SDS011;6686;51.292;4.166;2022-07-23T11:05:45;9.25;;;7.78;;
13238;SDS011;6686;51.292;4.166;2022-07-23T11:08:30;9.10;;;8.18;;
13238;SDS011;6686;51.292;4.166;2022-07-23T11:11:16;9.20;;;7.85;;
13238;SDS011;6686;51.292;4.166;2022-07-23T11:14:02;9.23;;;7.97;;
13238;SDS011;6686;51.292;4.166;2022-07-23T11:16:50;8.38;;;7.12;;
13238;SDS011;6686;51.292;4.166;2022-07-23T11:20:11;9.13;;;8.23;;
13238;SDS011;6686;51.292;4.166;2022-07-23T11:22:35;8.70;;;7.90;;
13238;SDS011;6686;51.292;4.166;2022-07-23T11:25:31;10.00;;;8.38;;
13238;SDS011;6686;51.292;4.166;2022-07-23T11:28:18;9.50;;;8.32;;
13238;SDS011;6686;51.292;4.166;2022-07-23T11:31:17;8.35;;;7.55;;
13238;SDS011;6686;51.292;4.166;2022-07-23T11:38:03;10.05;;;7.50;;
13238;SDS011;6686;51.292;4.166;2022-07-23T11:40:17;11.82;;;8.77;;
13238;SDS011;6686;51.292;4.166;2022-07-23T11:43:07;9.85;;;8.05;;
13238;SDS011;6686;51.292;4.166;2022-07-23T11:45:49;8.07;;;7.22;;
13238;SDS011;6686;51.292;4.166;2022-07-23T11:48:34;8.55;;;7.75;;
13238;SDS011;6686;51.292;4.166;2022-07-23T11:51:26;7.50;;;6.80;;
13238;SDS011;6686;51.292;4.166;2022-07-23T11:54:12;7.53;;;6.78;;
13238;SDS011;6686;51.292;4.166;2022-07-23T11:56:59;7.82;;;7.03;;
13238;SDS011;6686;51.292;4.166;2022-07-23T11:59:45;8.35;;;7.40;;
13238;SDS011;6686;51.292;4.166;2022-07-23T12:02:30;8.85;;;6.55;;
13238;SDS011;6686;51.292;4.166;2022-07-23T12:05:23;7.53;;;5.97;;
13238;SDS011;6686;51.292;4.166;2022-07-23T12:08:08;7.57;;;5.32;;
13238;SDS011;6686;51.292;4.166;2022-07-23T12:10:54;6.60;;;4.00;;
13238;SDS011;6686;51.292;4.166;2022-07-23T12:13:41;6.70;;;6.03;;
13238;SDS011;6686;51.292;4.166;2022-07-23T12:16:27;8.55;;;7.75;;
13238;SDS011;6686;51.292;4.166;2022-07-23T12:19:13;9.15;;;6.80;;
13238;SDS011;6686;51.292;4.166;2022-07-23T12:21:59;7.62;;;6.65;;
13238;SDS011;6686;51.292;4.166;2022-07-23T12:24:58;7.82;;;6.15;;
13238;SDS011;6686;51.292;4.166;2022-07-23T12:27:43;6.55;;;5.87;;
13238;SDS011;6686;51.292;4.166;2022-07-23T12:30:32;5.75;;;5.25;;
13238;SDS011;6686;51.292;4.166;2022-07-23T12:33:25;7.25;;;6.35;;
13238;SDS011;6686;51.292;4.166;2022-07-23T12:36:12;8.02;;;5.57;;
13238;SDS011;6686;51.292;4.166;2022-07-23T12:38:58;5.25;;;4.75;;
13238;SDS011;6686;51.292;4.166;2022-07-23T12:41:50;4.87;;;4.32;;
13238;SDS011;6686;51.292;4.166;2022-07-23T12:44:36;3.78;;;3.30;;
13238;SDS011;6686;51.292;4.166;2022-07-23T12:47:22;6.50;;;4.65;;
13238;SDS011;6686;51.292;4.166;2022-07-23T12:50:07;6.00;;;5.18;;
13238;SDS011;6686;51.292;4.166;2022-07-23T12:53:01;5.82;;;5.03;;
13238;SDS011;6686;51.292;4.166;2022-07-23T12:55:39;5.53;;;5.03;;
13238;SDS011;6686;51.292;4.166;2022-07-23T12:58:24;7.70;;;5.55;;
13238;SDS011;6686;51.292;4.166;2022-07-23T13:06:56;5.32;;;4.82;;
13238;SDS011;6686;51.292;4.166;2022-07-23T13:09:38;6.78;;;5.55;;
13238;SDS011;6686;51.292;4.166;2022-07-23T13:12:24;6.00;;;5.40;;
13238;SDS011;6686;51.292;4.166;2022-07-23T13:15:10;6.78;;;5.03;;
13238;SDS011;6686;51.292;4.166;2022-07-23T13:17:56;4.80;;;4.40;;
13238;SDS011;6686;51.292;4.166;2022-07-23T13:20:41;5.20;;;4.62;;
13238;SDS011;6686;51.292;4.166;2022-07-23T13:23:28;6.60;;;5.22;;
13238;SDS011;6686;51.292;4.166;2022-07-23T13:26:13;7.32;;;5.40;;
13238;SDS011;6686;51.292;4.166;2022-07-23T13:28:59;5.27;;;4.60;;
13238;SDS011;6686;51.292;4.166;2022-07-23T13:31:46;4.60;;;4.20;;
13238;SDS011;6686;51.292;4.166;2022-07-23T13:34:31;4.63;;;3.63;;
13238;SDS011;6686;51.292;4.166;2022-07-23T13:37:17;4.18;;;3.72;;
13238;SDS011;6686;51.292;4.166;2022-07-23T13:40:03;4.53;;;3.17;;
13238;SDS011;6686;51.292;4.166;2022-07-23T13:42:49;4.28;;;3.30;;
13238;SDS011;6686;51.292;4.166;2022-07-23T13:45:35;3.80;;;3.30;;
13238;SDS011;6686;51.292;4.166;2022-07-23T13:48:20;4.22;;;3.33;;
13238;SDS011;6686;51.292;4.166;2022-07-23T13:51:07;3.45;;;2.83;;
13238;SDS011;6686;51.292;4.166;2022-07-23T13:53:52;4.37;;;3.97;;
13238;SDS011;6686;51.292;4.166;2022-07-23T13:56:38;4.12;;;3.40;;
13238;SDS011;6686;51.292;4.166;2022-07-23T13:59:24;4.35;;;3.35;;
13238;SDS011;6686;51.292;4.166;2022-07-23T14:02:10;4.60;;;2.90;;
13238;SDS011;6686;51.292;4.166;2022-07-23T14:04:56;3.60;;;3.25;;
13238;SDS011;6686;51.292;4.166;2022-07-23T14:07:42;5.53;;;3.17;;
13238;SDS011;6686;51.292;4.166;2022-07-23T14:10:27;3.37;;;3.08;;
13238;SDS011;6686;51.292;4.166;2022-07-23T14:13:13;6.28;;;4.40;;
13238;SDS011;6686;51.292;4.166;2022-07-23T14:15:59;5.60;;;4.20;;
13238;SDS011;6686;51.292;4.166;2022-07-23T14:18:45;5.37;;;4.87;;
13238;SDS011;6686;51.292;4.166;2022-07-23T14:21:30;5.32;;;4.70;;
13238;SDS011;6686;51.292;4.166;2022-07-23T14:24:16;4.45;;;4.05;;
13238;SDS011;6686;51.292;4.166;2022-07-23T14:27:03;5.87;;;4.43;;
13238;SDS011;6686;51.292;4.166;2022-07-23T14:29:48;5.82;;;4.32;;
13238;SDS011;6686;51.292;4.166;2022-07-23T14:32:35;6.25;;;4.57;;
13238;SDS011;6686;51.292;4.166;2022-07-23T14:35:22;5.43;;;4.50;;
13238;SDS011;6686;51.292;4.166;2022-07-23T14:38:08;6.50;;;4.22;;
13238;SDS011;6686;51.292;4.166;2022-07-23T14:40:55;6.47;;;4.93;;
13238;SDS011;6686;51.292;4.166;2022-07-23T14:43:41;6.87;;;5.22;;
13238;SDS011;6686;51.292;4.166;2022-07-23T14:46:27;5.70;;;4.65;;
13238;SDS011;6686;51.292;4.166;2022-07-23T14:49:13;5.72;;;5.20;;
13238;SDS011;6686;51.292;4.166;2022-07-23T14:52:00;5.65;;;5.15;;
13238;SDS011;6686;51.292;4.166;2022-07-23T14:54:45;6.18;;;5.53;;
13238;SDS011;6686;51.292;4.166;2022-07-23T14:57:31;6.15;;;5.20;;
13238;SDS011;6686;51.292;4.166;2022-07-23T15:00:17;6.05;;;5.05;;
13238;SDS011;6686;51.292;4.166;2022-07-23T15:03:03;6.87;;;5.35;;
13238;SDS011;6686;51.292;4.166;2022-07-23T15:05:48;8.02;;;5.97;;
13238;SDS011;6686;51.292;4.166;2022-07-23T15:08:34;6.93;;;4.97;;
13238;SDS011;6686;51.292;4.166;2022-07-23T15:11:20;5.32;;;4.82;;
13238;SDS011;6686;51.292;4.166;2022-07-23T15:14:07;6.03;;;5.32;;
13238;SDS011;6686;51.292;4.166;2022-07-23T15:16:52;5.37;;;4.87;;
13238;SDS011;6686;51.292;4.166;2022-07-23T15:19:38;8.18;;;5.47;;
13238;SDS011;6686;51.292;4.166;2022-07-23T15:22:24;7.47;;;5.50;;
13238;SDS011;6686;51.292;4.166;2022-07-23T15:25:10;7.20;;;5.20;;
13238;SDS011;6686;51.292;4.166;2022-07-23T15:27:59;5.70;;;5.20;;
13238;SDS011;6686;51.292;4.166;2022-07-23T15:30:44;5.53;;;4.87;;
13238;SDS011;6686;51.292;4.166;2022-07-23T15:33:30;6.10;;;5.50;;
13238;SDS011;6686;51.292;4.166;2022-07-23T15:36:19;7.50;;;5.95;;
13238;SDS011;6686;51.292;4.166;2022-07-23T15:39:05;7.47;;;5.28;;
13238;SDS011;6686;51.292;4.166;2022-07-23T15:41:51;5.60;;;4.82;;
13238;SDS011;6686;51.292;4.166;2022-07-23T15:44:37;7.22;;;5.20;;
13238;SDS011;6686;51.292;4.166;2022-07-23T15:47:22;7.10;;;5.07;;
13238;SDS011;6686;51.292;4.166;2022-07-23T15:50:09;6.90;;;5.60;;
13238;SDS011;6686;51.292;4.166;2022-07-23T15:52:54;6.18;;;5.60;;
13238;SDS011;6686;51.292;4.166;2022-07-23T15:55:40;5.35;;;4.85;;
13238;SDS011;6686;51.292;4.166;2022-07-23T15:58:26;5.62;;;5.12;;
13238;SDS011;6686;51.292;4.166;2022-07-23T16:01:11;6.05;;;5.50;;
13238;SDS011;6686;51.292;4.166;2022-07-23T16:03:58;8.45;;;5.62;;
13238;SDS011;6686;51.292;4.166;2022-07-23T16:06:44;6.30;;;5.57;;
13238;SDS011;6686;51.292;4.166;2022-07-23T16:09:29;6.60;;;5.15;;
13238;SDS011;6686;51.292;4.166;2022-07-23T16:12:15;6.25;;;5.20;;
13238;SDS011;6686;51.292;4.166;2022-07-23T16:15:01;5.20;;;4.70;;
13238;SDS011;6686;51.292;4.166;2022-07-23T16:17:47;6.10;;;5.50;;
13238;SDS011;6686;51.292;4.166;2022-07-23T16:20:33;5.43;;;5.03;;
13238;SDS011;6686;51.292;4.166;2022-07-23T16:23:20;5.80;;;5.10;;
13238;SDS011;6686;51.292;4.166;2022-07-23T16:26:05;5.97;;;5.20;;
13238;SDS011;6686;51.292;4.166;2022-07-23T16:28:51;6.95;;;5.70;;
13238;SDS011;6686;51.292;4.166;2022-07-23T16:31:37;5.05;;;4.55;;
13238;SDS011;6686;51.292;4.166;2022-07-23T16:34:23;9.13;;;5.60;;
13238;SDS011;6686;51.292;4.166;2022-07-23T16:37:09;6.70;;;5.85;;
13238;SDS011;6686;51.292;4.166;2022-07-23T16:39:56;7.05;;;6.18;;
13238;SDS011;6686;51.292;4.166;2022-07-23T16:42:42;5.53;;;4.70;;
13238;SDS011;6686;51.292;4.166;2022-07-23T16:45:28;6.25;;;4.97;;
13238;SDS011;6686;51.292;4.166;2022-07-23T16:48:14;5.43;;;4.93;;
13238;SDS011;6686;51.292;4.166;2022-07-23T16:51:01;5.62;;;4.70;;
13238;SDS011;6686;51.292;4.166;2022-07-23T16:53:47;5.68;;;4.20;;
13238;SDS011;6686;51.292;4.166;2022-07-23T16:56:32;5.53;;;4.65;;
13238;SDS011;6686;51.292;4.166;2022-07-23T16:59:18;6.28;;;5.32;;
13238;SDS011;6686;51.292;4.166;2022-07-23T17:02:04;6.37;;;5.78;;
13238;SDS011;6686;51.292;4.166;2022-07-23T17:04:50;5.57;;;5.00;;
13238;SDS011;6686;51.292;4.166;2022-07-23T17:07:36;6.68;;;5.15;;
13238;SDS011;6686;51.292;4.166;2022-07-23T17:10:22;5.80;;;5.18;;
13238;SDS011;6686;51.292;4.166;2022-07-23T17:13:08;5.80;;;5.05;;
13238;SDS011;6686;51.292;4.166;2022-07-23T17:15:54;5.57;;;5.07;;
13238;SDS011;6686;51.292;4.166;2022-07-23T17:18:40;6.37;;;5.40;;
13238;SDS011;6686;51.292;4.166;2022-07-23T17:21:29;6.22;;;4.82;;
13238;SDS011;6686;51.292;4.166;2022-07-23T17:24:15;5.97;;;4.93;;